createdAt,value
2023-04-16T00:00:36.630Z,96168.36
2023-04-16T00:03:26.188Z,96170.25
2023-04-16T00:05:58.549Z,96171.75
2023-04-16T00:08:27.831Z,96172.27
2023-04-16T00:10:57.170Z,96174.86
2023-04-16T00:13:27.988Z,96179.41
2023-04-16T00:15:57.621Z,96175.73
2023-04-16T00:18:28.035Z,96173.20
2023-04-16T00:20:57.137Z,96176.30
2023-04-16T00:23:27.334Z,96173.70
2023-04-16T00:26:00.396Z,96173.98
2023-04-16T00:28:30.552Z,96172.27
2023-04-16T00:30:59.857Z,96173.52
2023-04-16T00:33:30.581Z,96170.50
2023-04-16T00:35:59.886Z,96179.90
2023-04-16T00:38:30.858Z,96176.42
2023-04-16T00:41:00.284Z,96172.92
2023-04-16T00:43:31.202Z,96173.69
2023-04-16T00:46:00.646Z,96166.48
2023-04-16T00:48:32.234Z,96171.61
2023-04-16T00:51:02.137Z,96169.39
2023-04-16T00:53:32.132Z,96173.14
2023-04-16T00:56:06.212Z,96168.42
2023-04-16T00:58:36.102Z,96169.59
2023-04-16T01:01:06.456Z,96171.16
2023-04-16T01:03:40.535Z,96177.33
2023-04-16T01:06:10.564Z,96176.95
2023-04-16T01:08:41.927Z,96175.30
2023-04-16T01:11:12.584Z,96171.69
2023-04-16T01:13:42.762Z,96173.65
2023-04-16T01:16:13.576Z,96177.57
2023-04-16T01:18:43.585Z,96174.62
2023-04-16T01:21:13.695Z,96179.30
2023-04-16T01:23:43.816Z,96181.79
2023-04-16T01:26:13.926Z,96172.45
2023-04-16T01:28:44.575Z,96172.56
2023-04-16T01:31:15.206Z,96174.77
2023-04-16T01:33:54.269Z,96174.38
2023-04-16T01:36:24.162Z,96172.76
2023-04-16T01:38:53.997Z,96171.18
2023-04-16T01:41:23.908Z,96170.42
2023-04-16T01:43:56.257Z,96176.33
2023-04-16T01:46:30.099Z,96173.11
2023-04-16T01:49:03.282Z,96178.16
2023-04-16T01:51:33.346Z,96179.81
2023-04-16T01:54:02.755Z,96180.69
2023-04-16T01:56:34.332Z,96178.88
2023-04-16T01:59:04.519Z,96178.73
2023-04-16T02:01:39.869Z,96174.54
2023-04-16T02:04:10.476Z,96176.50
2023-04-16T02:06:41.470Z,96176.66
2023-04-16T02:09:11.517Z,96179.34
2023-04-16T02:11:44.432Z,96179.94
2023-04-16T02:14:14.829Z,96180.45
2023-04-16T02:16:46.102Z,96179.22
2023-04-16T02:19:54.842Z,96173.45
2023-04-16T02:22:26.051Z,96168.48
2023-04-16T02:24:55.952Z,96168.02
2023-04-16T02:27:25.136Z,96172.20
2023-04-16T02:29:57.150Z,96172.61
2023-04-16T02:32:27.383Z,96166.88
2023-04-16T02:34:57.871Z,96168.27
2023-04-16T02:37:27.767Z,96168.70
2023-04-16T02:39:58.625Z,96169.77
2023-04-16T02:42:28.950Z,96171.75
2023-04-16T02:44:59.054Z,96172.45
2023-04-16T02:47:28.866Z,96176.30
2023-04-16T02:49:58.869Z,96180.22
2023-04-16T02:52:28.611Z,96182.59
2023-04-16T02:54:58.369Z,96181.18
2023-04-16T02:57:28.257Z,96182.43
2023-04-16T02:59:58.051Z,96182.70
2023-04-16T03:02:28.127Z,96177.70
2023-04-16T03:04:58.164Z,96175.55
2023-04-16T03:07:27.961Z,96175.96
2023-04-16T03:09:57.790Z,96176.29
2023-04-16T03:12:27.858Z,96174.39
2023-04-16T03:14:58.288Z,96175.89
2023-04-16T03:17:28.571Z,96172.42
2023-04-16T03:19:58.377Z,96177.71
2023-04-16T03:22:28.586Z,96184.02
2023-04-16T03:24:58.312Z,96183.66
2023-04-16T03:27:27.937Z,96185.78
2023-04-16T03:29:58.737Z,96188.07
2023-04-16T03:32:28.322Z,96191.02
2023-04-16T03:34:59.003Z,96194.70
2023-04-16T03:37:29.195Z,96204.32
2023-04-16T03:39:58.426Z,96197.01
2023-04-16T03:42:28.082Z,96204.94
2023-04-16T03:45:00.369Z,96203.55
2023-04-16T03:47:31.168Z,96201.45
2023-04-16T03:50:03.164Z,96202.37
2023-04-16T03:52:32.834Z,96194.77
2023-04-16T03:55:04.707Z,96188.29
2023-04-16T03:57:35.203Z,96186.00
2023-04-16T04:00:10.234Z,96190.77
2023-04-16T04:02:54.549Z,96211.44
2023-04-16T04:05:25.250Z,96215.73
2023-04-16T04:07:54.680Z,96220.39
2023-04-16T04:10:24.093Z,96217.65
2023-04-16T04:12:53.840Z,96216.27
2023-04-16T04:15:23.210Z,96216.94
2023-04-16T04:17:53.111Z,96219.55
2023-04-16T04:20:22.728Z,96219.88
2023-04-16T04:22:52.616Z,96219.14
2023-04-16T04:25:23.998Z,96225.31
2023-04-16T04:27:54.405Z,96226.62
2023-04-16T04:30:23.862Z,96223.75
2023-04-16T04:32:53.340Z,96225.53
2023-04-16T04:35:23.910Z,96228.55
2023-04-16T04:37:53.232Z,96231.11
2023-04-16T04:40:22.947Z,96237.34
2023-04-16T04:42:52.673Z,96239.15
2023-04-16T04:45:28.510Z,96238.47
2023-04-16T04:48:00.255Z,96239.27
2023-04-16T04:50:29.724Z,96238.38
2023-04-16T04:52:59.858Z,96238.95
2023-04-16T04:55:29.473Z,96239.89
2023-04-16T04:58:02.667Z,96237.82
2023-04-16T05:00:32.968Z,96236.81
2023-04-16T05:03:06.824Z,96236.08
2023-04-16T05:05:36.508Z,96234.86
2023-04-16T05:08:06.308Z,96237.99
2023-04-16T05:10:36.321Z,96234.06
2023-04-16T05:13:06.011Z,96234.80
2023-04-16T05:15:35.395Z,96231.92
2023-04-16T05:18:05.237Z,96232.90
2023-04-16T05:20:34.980Z,96236.09
2023-04-16T05:23:04.814Z,96237.73
2023-04-16T05:25:33.374Z,96233.80
2023-04-16T05:28:03.086Z,96237.14
2023-04-16T05:30:32.769Z,96235.36
2023-04-16T05:33:02.304Z,96232.48
2023-04-16T05:35:31.511Z,96236.38
2023-04-16T05:38:00.972Z,96234.02
2023-04-16T05:40:30.541Z,96233.98
2023-04-16T05:42:59.888Z,96235.93
2023-04-16T05:45:29.190Z,96235.06
2023-04-16T05:47:57.909Z,96237.29
2023-04-16T05:50:27.610Z,96235.84
2023-04-16T05:52:56.917Z,96235.95
2023-04-16T05:55:28.531Z,96238.35
2023-04-16T05:57:57.907Z,96233.84
2023-04-16T06:00:29.098Z,96235.34
2023-04-16T06:02:58.551Z,96235.61
2023-04-16T06:05:27.897Z,96235.58
2023-04-16T06:07:57.268Z,96238.33
2023-04-16T06:10:28.813Z,96239.77
2023-04-16T06:12:58.238Z,96241.17
2023-04-16T06:15:27.528Z,96242.35
2023-04-16T06:17:58.031Z,96248.38
2023-04-16T06:20:28.812Z,96247.54
2023-04-16T06:22:58.567Z,96241.98
2023-04-16T06:25:27.942Z,96238.13
2023-04-16T06:27:57.641Z,96237.02
2023-04-16T06:30:27.019Z,96239.20
2023-04-16T06:32:56.478Z,96242.55
2023-04-16T06:35:25.902Z,96241.98
2023-04-16T06:37:55.160Z,96238.17
2023-04-16T06:40:24.468Z,96235.64
2023-04-16T06:42:54.328Z,96230.36
2023-04-16T06:45:23.652Z,96232.08
2023-04-16T06:47:53.060Z,96223.70
2023-04-16T06:50:25.132Z,96223.58
2023-04-16T06:52:54.142Z,96220.70
2023-04-16T06:55:23.396Z,96221.18
2023-04-16T06:57:54.894Z,96223.71
2023-04-16T07:00:24.293Z,96223.33
2023-04-16T07:02:55.201Z,96215.59
2023-04-16T07:05:27.650Z,96214.66
2023-04-16T07:07:58.129Z,96209.55
2023-04-16T07:10:27.791Z,96208.15
2023-04-16T07:12:57.548Z,96206.35
2023-04-16T07:15:27.150Z,96204.52
2023-04-16T07:17:57.101Z,96204.75
2023-04-16T07:20:26.822Z,96204.30
2023-04-16T07:22:57.095Z,96203.98
2023-04-16T07:25:27.370Z,96204.48
2023-04-16T07:27:56.999Z,96204.64
2023-04-16T07:30:34.874Z,96201.55
2023-04-16T07:33:04.813Z,96197.45
2023-04-16T07:35:34.270Z,96194.64
2023-04-16T07:38:03.725Z,96198.21
2023-04-16T07:40:33.398Z,96192.64
2023-04-16T07:43:03.079Z,96195.14
2023-04-16T07:45:35.033Z,96193.15
2023-04-16T07:48:04.509Z,96192.38
2023-04-16T07:50:33.105Z,96188.73
2023-04-16T14:07:06.896Z,95976.95
2023-04-16T14:09:37.579Z,95981.85
2023-04-16T14:12:08.254Z,95992.70
2023-04-16T14:14:38.569Z,96007.42
2023-04-16T14:17:09.035Z,96023.95
2023-04-16T14:19:39.443Z,96029.38
2023-04-16T14:22:09.859Z,96036.01
2023-04-16T14:24:40.070Z,96046.22
2023-04-16T14:27:10.848Z,96047.71
2023-04-16T14:29:41.893Z,96047.81
2023-04-16T14:32:12.029Z,96049.21
2023-04-16T14:34:41.673Z,96048.81
2023-04-16T14:37:11.784Z,96051.46
2023-04-16T14:39:41.961Z,96056.11
2023-04-16T14:42:11.886Z,96054.83
2023-04-16T14:44:41.669Z,96056.72
2023-04-16T14:47:11.765Z,96057.27
2023-04-16T14:49:41.751Z,96062.47
2023-04-16T14:52:12.019Z,96063.68
2023-04-16T14:54:41.670Z,96061.58
2023-04-16T14:57:10.711Z,96061.40
2023-04-16T14:59:40.611Z,96058.17
2023-04-16T15:02:11.275Z,96055.84
2023-04-16T15:04:41.145Z,96056.63
2023-04-16T15:07:11.699Z,96053.66
2023-04-16T15:09:41.579Z,96055.27
2023-04-16T15:12:11.439Z,96053.89
2023-04-16T15:14:41.167Z,96053.67
2023-04-16T15:17:11.621Z,96055.88
2023-04-16T15:19:41.319Z,96062.00
2023-04-16T15:22:11.370Z,96059.94
2023-04-16T15:24:41.588Z,96060.18
2023-04-16T15:27:12.233Z,96057.33
2023-04-16T15:29:42.201Z,96059.27
2023-04-16T15:32:12.786Z,96060.55
2023-04-16T15:34:42.478Z,96061.27
2023-04-16T15:37:12.041Z,96065.07
2023-04-16T15:39:42.095Z,96064.25
2023-04-16T15:42:11.968Z,96061.42
2023-04-16T15:44:41.584Z,96056.49
2023-04-16T15:47:11.237Z,96053.15
2023-04-16T15:49:41.046Z,96049.39
2023-04-16T15:52:12.493Z,96049.68
2023-04-16T15:54:42.764Z,96053.83
2023-04-16T15:57:12.389Z,96051.44
2023-04-16T15:59:41.317Z,96057.61
2023-04-16T16:02:10.829Z,96058.02
2023-04-16T16:04:47.227Z,96063.44
2023-04-16T16:07:20.366Z,96062.38
2023-04-16T16:09:53.501Z,96068.29
2023-04-16T16:12:23.878Z,96068.17
2023-04-16T16:14:53.698Z,96070.61
2023-04-16T16:17:23.374Z,96068.58
2023-04-16T16:19:53.682Z,96073.58
2023-04-16T16:22:24.293Z,96074.45
2023-04-16T16:24:56.802Z,96070.80
2023-04-16T16:27:27.350Z,96068.27
2023-04-16T16:29:56.204Z,96066.54
2023-04-16T16:32:25.788Z,96061.35
2023-04-16T16:34:55.434Z,96065.39
2023-04-16T16:37:25.070Z,96068.17
2023-04-16T16:39:54.643Z,96073.45
2023-04-16T16:42:24.393Z,96070.59
2023-04-16T16:44:56.020Z,96067.33
2023-04-16T16:47:27.422Z,96069.31
2023-04-16T16:49:57.757Z,96071.41
2023-04-16T16:52:28.036Z,96069.52
2023-04-16T16:54:58.740Z,96067.72
2023-04-16T16:57:28.747Z,96070.94
2023-04-16T16:59:59.301Z,96070.83
2023-04-16T17:02:29.929Z,96068.80
2023-04-16T17:05:01.772Z,96071.17
2023-04-16T17:07:32.885Z,96067.16
2023-04-16T17:10:06.080Z,96063.73
2023-04-16T17:12:37.295Z,96064.56
2023-04-16T17:15:08.554Z,96065.95
2023-04-16T17:17:39.185Z,96062.16
2023-04-16T17:20:11.308Z,96064.36
2023-04-16T17:22:41.221Z,96066.62
2023-04-16T17:25:11.923Z,96073.64
2023-04-16T17:27:42.407Z,96083.88
2023-04-16T17:30:12.961Z,96096.98
2023-04-16T17:32:42.583Z,96104.93
2023-04-16T17:35:14.319Z,96109.52
2023-04-16T17:37:44.909Z,96111.58
2023-04-16T17:40:18.041Z,96105.91
2023-04-16T17:42:50.387Z,96107.58
2023-04-16T17:45:20.124Z,96118.05
2023-04-16T17:47:50.441Z,96116.81
2023-04-16T17:50:20.044Z,96115.98
2023-04-16T17:52:49.634Z,96116.34
2023-04-16T17:55:19.195Z,96117.41
2023-04-16T17:57:49.507Z,96124.94
2023-04-16T18:00:20.204Z,96124.84
2023-04-16T18:02:50.121Z,96130.05
2023-04-16T18:05:20.323Z,96129.23
2023-04-16T18:07:51.035Z,96128.59
2023-04-16T18:10:21.265Z,96131.65
2023-04-16T18:12:51.112Z,96134.44
2023-04-16T18:15:21.313Z,96128.98
2023-04-16T18:17:52.035Z,96126.86
2023-04-16T18:20:23.713Z,96129.87
2023-04-16T18:22:54.348Z,96129.35
2023-04-16T18:25:33.924Z,96128.88
2023-04-16T18:28:06.773Z,96128.21
2023-04-16T18:30:40.466Z,96127.23
2023-04-16T18:33:42.711Z,96125.17
2023-04-16T18:36:05.015Z,96125.23
2023-04-16T18:38:35.086Z,96125.76
2023-04-16T18:41:05.379Z,96127.30
2023-04-16T18:43:35.048Z,96124.73
2023-04-16T18:46:04.573Z,96129.24
2023-04-16T18:48:34.280Z,96132.23
2023-04-16T18:51:03.260Z,96133.11
2023-04-16T18:53:33.815Z,96133.66
2023-04-16T18:56:04.583Z,96131.86
2023-04-16T18:58:34.918Z,96129.52
2023-04-16T19:01:05.365Z,96131.22
2023-04-16T19:03:35.746Z,96133.23
2023-04-16T19:06:06.459Z,96139.02
2023-04-16T19:08:35.988Z,96139.86
2023-04-16T19:11:05.609Z,96136.80
2023-04-16T19:13:36.296Z,96131.97
2023-04-16T19:16:11.920Z,96128.21
2023-04-16T19:18:41.015Z,96133.40
2023-04-16T19:21:12.358Z,96132.44
2023-04-16T19:23:41.952Z,96129.40
2023-04-16T19:26:11.508Z,96131.73
2023-04-16T19:28:42.957Z,96127.77
2023-04-16T19:31:12.618Z,96136.20
2023-04-16T19:33:42.718Z,96136.25
2023-04-16T19:36:12.599Z,96133.16
2023-04-16T19:38:42.106Z,96131.36
2023-04-16T19:41:12.123Z,96130.98
2023-04-16T19:43:42.101Z,96127.14
2023-04-16T19:46:11.568Z,96126.38
2023-04-16T19:48:41.672Z,96125.95
2023-04-16T19:51:11.973Z,96121.34
2023-04-16T19:53:42.709Z,96120.14
2023-04-16T19:56:14.208Z,96122.39
2023-04-16T19:58:44.629Z,96117.46
2023-04-16T20:01:14.954Z,96122.85
2023-04-16T20:03:45.036Z,96120.90
2023-04-16T20:06:15.122Z,96120.42
2023-04-16T20:08:45.256Z,96119.53
2023-04-16T20:11:15.413Z,96121.63
2023-04-16T20:13:49.067Z,96119.98
2023-04-16T20:16:24.375Z,96123.16
2023-04-16T20:18:57.378Z,96120.86
2023-04-16T20:21:30.444Z,96124.27
2023-04-16T20:24:03.358Z,96120.05
2023-04-16T20:26:37.107Z,96123.08
2023-04-16T20:29:07.029Z,96122.39
2023-04-16T20:31:37.356Z,96125.10
2023-04-16T20:34:07.749Z,96120.33
2023-04-16T20:36:37.677Z,96126.07
2023-04-16T20:39:08.604Z,96120.17
2023-04-16T20:41:44.320Z,96122.20
2023-04-16T20:44:19.665Z,96121.21
2023-04-16T20:46:51.120Z,96115.84
2023-04-16T20:49:20.029Z,96118.43
2023-04-16T20:51:50.190Z,96116.73
2023-04-16T20:54:20.178Z,96119.00
2023-04-16T20:56:50.855Z,96114.70
2023-04-16T20:59:20.881Z,96113.91
2023-04-16T21:01:50.931Z,96114.31
2023-04-16T21:04:21.793Z,96116.15
2023-04-16T21:06:54.095Z,96115.94
2023-04-16T21:09:24.390Z,96114.74
2023-04-16T21:11:53.982Z,96116.75
2023-04-16T21:14:24.103Z,96118.70
2023-04-16T21:16:53.599Z,96120.39
2023-04-16T21:19:23.675Z,96116.10
2023-04-16T21:21:53.666Z,96117.52
2023-04-16T21:24:23.759Z,96117.85
2023-04-16T21:26:53.280Z,96116.80
2023-04-16T21:29:22.754Z,96122.25
2023-04-16T21:31:52.773Z,96117.04
2023-04-16T21:34:21.801Z,96117.91
2023-04-16T21:36:51.866Z,96117.42
2023-04-16T21:39:22.162Z,96116.67
2023-04-16T21:41:51.663Z,96117.63
2023-04-16T21:44:21.631Z,96117.51
2023-04-16T21:46:52.599Z,96110.26
2023-04-16T21:49:22.707Z,96108.73
2023-04-16T21:51:59.737Z,96109.85
2023-04-16T21:54:29.203Z,96107.95
2023-04-16T21:56:59.146Z,96105.20
2023-04-16T21:59:29.204Z,96100.02
2023-04-16T22:01:58.713Z,96102.10
2023-04-16T22:04:37.525Z,96102.45
2023-04-16T22:07:12.173Z,96102.78
2023-04-16T22:09:44.961Z,96095.73
2023-04-16T22:12:15.871Z,96101.48
2023-04-16T22:14:59.775Z,96100.58
2023-04-16T22:17:34.854Z,96097.04
2023-04-16T22:20:12.696Z,96102.52
2023-04-16T22:22:43.285Z,96096.44
2023-04-16T22:25:13.727Z,96096.80
2023-04-16T22:27:44.098Z,96097.31
2023-04-16T22:30:14.219Z,96097.41
2023-04-16T22:32:44.217Z,96101.85
2023-04-16T22:35:13.934Z,96100.23
2023-04-16T22:37:43.728Z,96096.93
2023-04-16T22:40:12.656Z,96095.83
2023-04-16T22:42:42.839Z,96096.58
2023-04-16T22:45:13.213Z,96096.09
2023-04-16T22:47:43.694Z,96097.59
2023-04-16T22:50:13.074Z,96099.12
2023-04-16T22:52:42.528Z,96098.25
2023-04-16T22:55:12.313Z,96099.77
2023-04-16T22:57:42.525Z,96103.53
2023-04-16T23:00:18.061Z,96095.34
2023-04-16T23:02:48.388Z,96098.74
2023-04-16T23:05:18.506Z,96098.04
2023-04-16T23:07:48.751Z,96098.21
2023-04-16T23:10:18.405Z,96094.45
2023-04-16T23:12:48.101Z,96093.83
2023-04-16T23:15:18.606Z,96092.75
2023-04-16T23:17:48.551Z,96091.56
2023-04-16T23:20:18.731Z,96086.71
2023-04-16T23:22:48.966Z,96085.33
2023-04-16T23:25:18.665Z,96087.06
2023-04-16T23:27:49.663Z,96081.44
2023-04-16T23:30:19.743Z,96082.25
2023-04-16T23:32:50.216Z,96080.92
2023-04-16T23:35:23.738Z,96079.55
2023-04-16T23:37:53.357Z,96078.70
2023-04-16T23:40:23.359Z,96074.17
2023-04-16T23:42:53.359Z,96072.95
2023-04-16T23:45:22.876Z,96074.95
2023-04-16T23:47:53.168Z,96076.33
2023-04-16T23:50:23.206Z,96071.79
2023-04-16T23:52:53.235Z,96076.05
2023-04-16T23:55:23.022Z,96074.13
2023-04-16T23:57:53.130Z,96071.72
